San Saba, Texas
Current Conditions -  °F | °C
As of 2:10 PM on Thursday 29 Jan 2015 (Local Time) from KAQO Reporting Station
Few Clouds Few Clouds  
Wind Chill: 72°   Ceiling: Unl
Heat Index: 72°   Visibility: 10mi
Dew Point: 41°   Wind: 13mph
Humidity: 33%   Direction: 60°ENE
Pressure: 30.26"   Gusts: 16mph
Location:  31.2°N, 98.72°W
Report Text: KAQO 292010Z AUTO 06011G14KT 10SM FEW100 22/05 A3026 RMK AO2
Loading
Personal Weather Stations






























Interactive Weather Map New forecast layout! Learn more

10-Day Weather Forecast

Advertisements
Track Severe Weather on mobile